sensor_id;sensor_type;location;lat;lon;timestamp;pressure;altitude;pressure_sealevel;temperature;humidity
63654;BME280;49809;47.418;19.080;2023-05-07T00:00:52;100490.66;;;14.27;100.00
63654;BME280;49809;47.418;19.080;2023-05-07T00:04:19;100493.34;;;14.22;100.00
63654;BME280;49809;47.418;19.080;2023-05-07T00:07:25;100488.03;;;14.22;100.00
63654;BME280;49809;47.418;19.080;2023-05-07T00:11:10;100505.56;;;14.23;100.00
63654;BME280;49809;47.418;19.080;2023-05-07T00:14:18;100497.63;;;14.18;100.00
63654;BME280;49809;47.418;19.080;2023-05-07T00:17:27;100501.59;;;14.21;100.00
63654;BME280;49809;47.418;19.080;2023-05-07T00:20:32;100502.94;;;14.18;100.00
63654;BME280;49809;47.418;19.080;2023-05-07T00:23:54;100502.41;;;14.21;100.00
63654;BME280;49809;47.418;19.080;2023-05-07T00:27:39;100499.19;;;14.19;100.00
63654;BME280;49809;47.418;19.080;2023-05-07T00:30:59;100493.34;;;14.22;100.00
63654;BME280;49809;47.418;19.080;2023-05-07T00:34:31;100501.34;;;14.22;100.00
63654;BME280;49809;47.418;19.080;2023-05-07T00:37:55;100492.28;;;14.18;100.00
63654;BME280;49809;47.418;19.080;2023-05-07T00:41:40;100494.41;;;14.16;100.00
63654;BME280;49809;47.418;19.080;2023-05-07T00:44:46;100492.56;;;14.12;100.00
63654;BME280;49809;47.418;19.080;2023-05-07T00:48:24;100491.22;;;14.04;100.00
63654;BME280;49809;47.418;19.080;2023-05-07T00:51:43;100493.38;;;13.92;100.00
63654;BME280;49809;47.418;19.080;2023-05-07T00:54:48;100497.66;;;13.83;100.00
63654;BME280;49809;47.418;19.080;2023-05-07T00:57:51;100498.72;;;13.82;100.00
63654;BME280;49809;47.418;19.080;2023-05-07T01:01:20;100507.50;;;13.72;100.00
63654;BME280;49809;47.418;19.080;2023-05-07T01:04:38;100499.78;;;13.66;100.00
63654;BME280;49809;47.418;19.080;2023-05-07T01:08:15;100508.31;;;13.53;100.00
63654;BME280;49809;47.418;19.080;2023-05-07T01:11:51;100509.34;;;13.46;100.00
63654;BME280;49809;47.418;19.080;2023-05-07T01:15:13;100513.09;;;13.40;100.00
63654;BME280;49809;47.418;19.080;2023-05-07T01:18:44;100509.88;;;13.38;100.00
63654;BME280;49809;47.418;19.080;2023-05-07T01:22:10;100514.66;;;13.31;100.00
63654;BME280;49809;47.418;19.080;2023-05-07T01:25:36;100507.75;;;13.25;100.00
63654;BME280;49809;47.418;19.080;2023-05-07T01:29:08;100509.34;;;13.21;100.00
63654;BME280;49809;47.418;19.080;2023-05-07T01:32:44;100508.25;;;13.22;100.00
63654;BME280;49809;47.418;19.080;2023-05-07T01:36:09;100506.13;;;13.19;100.00
63654;BME280;49809;47.418;19.080;2023-05-07T01:39:28;100500.25;;;13.12;100.00
63654;BME280;49809;47.418;19.080;2023-05-07T01:43:05;100505.81;;;13.05;100.00
63654;BME280;49809;47.418;19.080;2023-05-07T01:46:46;100514.03;;;13.04;100.00
63654;BME280;49809;47.418;19.080;2023-05-07T01:50:45;100512.72;;;13.01;100.00
63654;BME280;49809;47.418;19.080;2023-05-07T01:54:28;100514.31;;;13.07;100.00
63654;BME280;49809;47.418;19.080;2023-05-07T01:57:49;100513.22;;;13.03;100.00
63654;BME280;49809;47.418;19.080;2023-05-07T02:01:08;100505.78;;;12.95;100.00
63654;BME280;49809;47.418;19.080;2023-05-07T02:04:32;100511.34;;;12.89;100.00
63654;BME280;49809;47.418;19.080;2023-05-07T02:08:07;100499.88;;;12.78;100.00
63654;BME280;49809;47.418;19.080;2023-05-07T02:22:18;100489.41;;;12.51;100.00
63654;BME280;49809;47.418;19.080;2023-05-07T02:25:23;100487.00;;;12.50;100.00
63654;BME280;49809;47.418;19.080;2023-05-07T02:29:08;100479.31;;;12.43;100.00
63654;BME280;49809;47.418;19.080;2023-05-07T02:32:46;100479.53;;;12.37;100.00
63654;BME280;49809;47.418;19.080;2023-05-07T02:36:29;100482.41;;;12.30;100.00
63654;BME280;49809;47.418;19.080;2023-05-07T02:39:51;100482.13;;;12.27;100.00
63654;BME280;49809;47.418;19.080;2023-05-07T02:43:26;100477.34;;;12.24;100.00
63654;BME280;49809;47.418;19.080;2023-05-07T02:47:01;100487.09;;;12.13;100.00
63654;BME280;49809;47.418;19.080;2023-05-07T02:50:33;100479.62;;;12.05;100.00
63654;BME280;49809;47.418;19.080;2023-05-07T02:54:06;100487.84;;;12.03;100.00
63654;BME280;49809;47.418;19.080;2023-05-07T02:57:42;100489.13;;;12.01;100.00
63654;BME280;49809;47.418;19.080;2023-05-07T03:01:15;100490.16;;;11.95;100.00
63654;BME280;49809;47.418;19.080;2023-05-07T03:05:07;100491.97;;;11.89;100.00
63654;BME280;49809;47.418;19.080;2023-05-07T03:08:45;100488.50;;;11.84;100.00
63654;BME280;49809;47.418;19.080;2023-05-07T03:12:19;100483.72;;;11.81;100.00
63654;BME280;49809;47.418;19.080;2023-05-07T03:15:40;100488.25;;;11.85;100.00
63654;BME280;49809;47.418;19.080;2023-05-07T03:19:31;100490.97;;;11.95;100.00
63654;BME280;49809;47.418;19.080;2023-05-07T03:22:50;100495.53;;;12.05;100.00
63654;BME280;49809;47.418;19.080;2023-05-07T03:26:18;100491.31;;;12.09;100.00
63654;BME280;49809;47.418;19.080;2023-05-07T03:29:46;100487.63;;;12.10;100.00
63654;BME280;49809;47.418;19.080;2023-05-07T03:33:21;100488.41;;;12.15;100.00
63654;BME280;49809;47.418;19.080;2023-05-07T03:37:02;100489.22;;;12.16;100.00
63654;BME280;49809;47.418;19.080;2023-05-07T03:40:41;100499.88;;;12.21;100.00
63654;BME280;49809;47.418;19.080;2023-05-07T03:44:09;100490.09;;;12.27;100.00
63654;BME280;49809;47.418;19.080;2023-05-07T03:47:55;100497.84;;;12.33;100.00
63654;BME280;49809;47.418;19.080;2023-05-07T03:51:28;100498.09;;;12.37;100.00
63654;BME280;49809;47.418;19.080;2023-05-07T03:54:53;100503.69;;;12.40;100.00
63654;BME280;49809;47.418;19.080;2023-05-07T04:05:57;100507.13;;;12.36;100.00
63654;BME280;49809;47.418;19.080;2023-05-07T04:13:09;100515.56;;;12.28;100.00
63654;BME280;49809;47.418;19.080;2023-05-07T04:27:42;100519.09;;;12.38;100.00
63654;BME280;49809;47.418;19.080;2023-05-07T04:31:11;100527.34;;;12.42;100.00
63654;BME280;49809;47.418;19.080;2023-05-07T04:34:55;100526.31;;;12.48;100.00
63654;BME280;49809;47.418;19.080;2023-05-07T04:38:31;100529.28;;;12.56;100.00
63654;BME280;49809;47.418;19.080;2023-05-07T04:42:15;100535.19;;;12.74;100.00
63654;BME280;49809;47.418;19.080;2023-05-07T04:45:33;100536.63;;;12.96;100.00
63654;BME280;49809;47.418;19.080;2023-05-07T04:48:52;100534.56;;;13.19;100.00
63654;BME280;49809;47.418;19.080;2023-05-07T04:52:20;100535.94;;;13.41;100.00
63654;BME280;49809;47.418;19.080;2023-05-07T04:55:59;100541.84;;;13.69;100.00
63654;BME280;49809;47.418;19.080;2023-05-07T04:59:35;100538.87;;;13.90;100.00
63654;BME280;49809;47.418;19.080;2023-05-07T05:21:01;100539.28;;;14.73;100.00
63654;BME280;49809;47.418;19.080;2023-05-07T05:24:30;100545.13;;;14.81;100.00
63654;BME280;49809;47.418;19.080;2023-05-07T06:24:52;100542.84;;;16.72;91.49
63654;BME280;49809;47.418;19.080;2023-05-07T06:28:29;100541.78;;;16.92;89.79
63654;BME280;49809;47.418;19.080;2023-05-07T06:32:33;100542.34;;;17.13;90.22
63654;BME280;49809;47.418;19.080;2023-05-07T06:36:12;100548.87;;;17.58;87.32
63654;BME280;49809;47.418;19.080;2023-05-07T07:23:19;100550.16;;;21.37;63.11
63654;BME280;49809;47.418;19.080;2023-05-07T07:26:48;100558.84;;;21.59;62.33
63654;BME280;49809;47.418;19.080;2023-05-07T07:29:52;100560.13;;;21.71;63.21
63654;BME280;49809;47.418;19.080;2023-05-07T07:32:56;100567.53;;;21.91;63.05
63654;BME280;49809;47.418;19.080;2023-05-07T07:36:07;100557.44;;;21.28;61.74
63654;BME280;49809;47.418;19.080;2023-05-07T07:39:11;100564.78;;;20.79;63.73
63654;BME280;49809;47.418;19.080;2023-05-07T07:42:39;100569.28;;;21.09;64.27
63654;BME280;49809;47.418;19.080;2023-05-07T07:45:45;100567.09;;;21.46;64.92
63654;BME280;49809;47.418;19.080;2023-05-07T07:49:15;100568.47;;;21.09;65.57
63654;BME280;49809;47.418;19.080;2023-05-07T07:52:39;100573.22;;;21.03;66.59
63654;BME280;49809;47.418;19.080;2023-05-07T07:55:47;100573.19;;;20.86;68.53
63654;BME280;49809;47.418;19.080;2023-05-07T07:58:50;100580.72;;;21.66;66.11
63654;BME280;49809;47.418;19.080;2023-05-07T08:01:57;100579.28;;;21.17;63.83
63654;BME280;49809;47.418;19.080;2023-05-07T08:05:00;100575.97;;;21.38;65.57
63654;BME280;49809;47.418;19.080;2023-05-07T08:08:07;100576.78;;;21.30;64.76
63654;BME280;49809;47.418;19.080;2023-05-07T08:11:12;100579.97;;;21.49;64.79
63654;BME280;49809;47.418;19.080;2023-05-07T08:14:15;100579.97;;;21.49;63.81
63654;BME280;49809;47.418;19.080;2023-05-07T08:17:24;100576.47;;;20.35;67.46
63654;BME280;49809;47.418;19.080;2023-05-07T08:21:08;100586.47;;;20.43;67.39
63654;BME280;49809;47.418;19.080;2023-05-07T08:24:29;100577.44;;;20.78;66.85
63654;BME280;49809;47.418;19.080;2023-05-07T08:27:33;100575.19;;;21.37;64.53
63654;BME280;49809;47.418;19.080;2023-05-07T08:30:39;100571.81;;;20.27;67.94
63654;BME280;49809;47.418;19.080;2023-05-07T08:33:42;100565.44;;;21.02;66.54
63654;BME280;49809;47.418;19.080;2023-05-07T08:36:50;100569.97;;;20.67;67.79
63654;BME280;49809;47.418;19.080;2023-05-07T08:39:54;100562.44;;;21.03;68.21
63654;BME280;49809;47.418;19.080;2023-05-07T08:43:01;100561.34;;;21.04;68.19
63654;BME280;49809;47.418;19.080;2023-05-07T08:46:08;100553.81;;;21.49;66.99
63654;BME280;49809;47.418;19.080;2023-05-07T08:49:59;100564.25;;;21.34;66.14
63654;BME280;49809;47.418;19.080;2023-05-07T08:53:03;100562.75;;;20.93;67.73
63654;BME280;49809;47.418;19.080;2023-05-07T08:56:08;100562.69;;;21.33;65.68
63654;BME280;49809;47.418;19.080;2023-05-07T08:59:11;100563.13;;;21.17;65.67
63654;BME280;49809;47.418;19.080;2023-05-07T09:02:16;100562.44;;;21.03;67.90
63654;BME280;49809;47.418;19.080;2023-05-07T09:05:43;100568.16;;;22.14;66.01
63654;BME280;49809;47.418;19.080;2023-05-07T09:09:21;100558.72;;;21.56;67.15
63654;BME280;49809;47.418;19.080;2023-05-07T09:12:25;100561.41;;;21.47;65.53
63654;BME280;49809;47.418;19.080;2023-05-07T09:15:28;100562.75;;;22.14;64.78
63654;BME280;49809;47.418;19.080;2023-05-07T09:18:32;100559.81;;;22.82;62.13
63654;BME280;49809;47.418;19.080;2023-05-07T09:21:37;100557.78;;;22.79;61.37
63654;BME280;49809;47.418;19.080;2023-05-07T09:24:49;100567.50;;;23.63;59.06
63654;BME280;49809;47.418;19.080;2023-05-07T09:27:57;100569.13;;;23.35;59.06
63654;BME280;49809;47.418;19.080;2023-05-07T09:31:20;100569.19;;;23.06;59.58
63654;BME280;49809;47.418;19.080;2023-05-07T09:34:29;100568.87;;;23.69;58.78
63654;BME280;49809;47.418;19.080;2023-05-07T09:37:33;100569.94;;;22.85;61.57
63654;BME280;49809;47.418;19.080;2023-05-07T09:40:36;100565.81;;;22.50;62.47
63654;BME280;49809;47.418;19.080;2023-05-07T09:43:55;100566.44;;;23.76;60.07
63654;BME280;49809;47.418;19.080;2023-05-07T09:47:24;100559.84;;;24.92;56.60
63654;BME280;49809;47.418;19.080;2023-05-07T09:50:35;100567.13;;;23.53;58.82
63654;BME280;49809;47.418;19.080;2023-05-07T09:53:43;100571.00;;;24.30;57.37
63654;BME280;49809;47.418;19.080;2023-05-07T09:56:51;100563.00;;;24.82;55.77
63654;BME280;49809;47.418;19.080;2023-05-07T09:59:57;100562.50;;;25.16;54.15
63654;BME280;49809;47.418;19.080;2023-05-07T10:03:24;100564.81;;;25.02;55.66
63654;BME280;49809;47.418;19.080;2023-05-07T10:06:57;100569.28;;;24.25;55.62
63654;BME280;49809;47.418;19.080;2023-05-07T10:10:07;100565.22;;;25.16;54.57
63654;BME280;49809;47.418;19.080;2023-05-07T10:13:33;100578.12;;;25.07;54.35
63654;BME280;49809;47.418;19.080;2023-05-07T10:16:41;100574.94;;;24.44;52.08
63654;BME280;49809;47.418;19.080;2023-05-07T10:19:50;100572.97;;;23.55;55.84
63654;BME280;49809;47.418;19.080;2023-05-07T10:22:57;100565.84;;;22.41;56.87
63654;BME280;49809;47.418;19.080;2023-05-07T10:26:05;100566.03;;;22.66;57.78
63654;BME280;49809;47.418;19.080;2023-05-07T10:32:49;100569.75;;;21.89;58.60
63654;BME280;49809;47.418;19.080;2023-05-07T10:36:00;100569.88;;;22.65;57.14
63654;BME280;49809;47.418;19.080;2023-05-07T10:39:09;100576.66;;;22.33;58.54
63654;BME280;49809;47.418;19.080;2023-05-07T10:42:15;100565.78;;;22.12;58.65
63654;BME280;49809;47.418;19.080;2023-05-07T10:45:22;100568.25;;;22.34;58.69
63654;BME280;49809;47.418;19.080;2023-05-07T10:48:25;100563.47;;;22.40;58.35
63654;BME280;49809;47.418;19.080;2023-05-07T10:51:34;100563.28;;;22.83;57.32
63654;BME280;49809;47.418;19.080;2023-05-07T10:54:38;100571.34;;;22.53;58.04
63654;BME280;49809;47.418;19.080;2023-05-07T10:57:46;100567.16;;;23.44;54.89
63654;BME280;49809;47.418;19.080;2023-05-07T11:00:59;100564.78;;;23.22;55.98
63654;BME280;49809;47.418;19.080;2023-05-07T11:04:15;100566.41;;;23.14;56.51
63654;BME280;49809;47.418;19.080;2023-05-07T11:07:28;100575.06;;;23.70;55.79
63654;BME280;49809;47.418;19.080;2023-05-07T11:10:54;100567.25;;;23.89;52.65
63654;BME280;49809;47.418;19.080;2023-05-07T11:13:59;100559.03;;;23.98;50.89
63654;BME280;49809;47.418;19.080;2023-05-07T11:17:06;100555.69;;;22.76;54.20
63654;BME280;49809;47.418;19.080;2023-05-07T11:20:11;100556.47;;;23.68;52.12
63654;BME280;49809;47.418;19.080;2023-05-07T11:27:24;100550.03;;;25.27;46.99
63654;BME280;49809;47.418;19.080;2023-05-07T11:30:31;100551.47;;;27.02;44.00
63654;BME280;49809;47.418;19.080;2023-05-07T11:33:37;100550.69;;;27.40;43.60
63654;BME280;49809;47.418;19.080;2023-05-07T11:36:44;100551.22;;;27.65;43.47
63654;BME280;49809;47.418;19.080;2023-05-07T11:39:50;100547.34;;;26.42;47.43
63654;BME280;49809;47.418;19.080;2023-05-07T11:43:13;100544.59;;;26.89;44.31
63654;BME280;49809;47.418;19.080;2023-05-07T11:46:19;100552.41;;;26.12;46.03
63654;BME280;49809;47.418;19.080;2023-05-07T11:49:27;100545.97;;;26.99;44.65
63654;BME280;49809;47.418;19.080;2023-05-07T11:52:29;100545.34;;;27.05;44.09
63654;BME280;49809;47.418;19.080;2023-05-07T11:55:33;100536.09;;;28.09;39.75
63654;BME280;49809;47.418;19.080;2023-05-07T11:58:46;100545.69;;;28.03;38.84
63654;BME280;49809;47.418;19.080;2023-05-07T12:01:49;100533.16;;;27.53;41.32
63654;BME280;49809;47.418;19.080;2023-05-07T12:04:53;100527.66;;;28.15;37.85
63654;BME280;49809;47.418;19.080;2023-05-07T12:07:57;100535.34;;;27.67;38.32
63654;BME280;49809;47.418;19.080;2023-05-07T12:11:00;100525.41;;;27.97;38.83
63654;BME280;49809;47.418;19.080;2023-05-07T12:14:03;100520.75;;;29.63;35.53
63654;BME280;49809;47.418;19.080;2023-05-07T12:17:08;100519.25;;;30.53;34.15
63654;BME280;49809;47.418;19.080;2023-05-07T12:20:15;100512.09;;;29.54;33.09
63654;BME280;49809;47.418;19.080;2023-05-07T12:23:20;100516.94;;;31.31;31.05
63654;BME280;49809;47.418;19.080;2023-05-07T12:26:27;100510.91;;;29.51;32.88
63654;BME280;49809;47.418;19.080;2023-05-07T12:29:31;100513.38;;;30.48;31.79
63654;BME280;49809;47.418;19.080;2023-05-07T12:32:35;100516.25;;;29.41;32.30
63654;BME280;49809;47.418;19.080;2023-05-07T12:35:42;100499.62;;;28.89;34.26
63654;BME280;49809;47.418;19.080;2023-05-07T12:38:49;100507.97;;;26.32;39.28
63654;BME280;49809;47.418;19.080;2023-05-07T12:41:57;100501.94;;;26.74;38.33
63654;BME280;49809;47.418;19.080;2023-05-07T12:45:12;100501.84;;;26.86;36.89
63654;BME280;49809;47.418;19.080;2023-05-07T12:48:19;100504.56;;;26.70;37.30
63654;BME280;49809;47.418;19.080;2023-05-07T12:51:27;100492.22;;;26.22;36.98
63654;BME280;49809;47.418;19.080;2023-05-07T12:54:32;100496.44;;;27.05;36.96
63654;BME280;49809;47.418;19.080;2023-05-07T12:57:48;100506.25;;;26.59;36.78
63654;BME280;49809;47.418;19.080;2023-05-07T13:01:15;100496.72;;;27.00;35.92
63654;BME280;49809;47.418;19.080;2023-05-07T13:04:41;100497.28;;;26.74;35.42
63654;BME280;49809;47.418;19.080;2023-05-07T13:07:53;100496.28;;;27.17;36.97
63654;BME280;49809;47.418;19.080;2023-05-07T13:11:16;100490.34;;;26.42;37.26
63654;BME280;49809;47.418;19.080;2023-05-07T13:14:19;100490.50;;;25.86;38.86
63654;BME280;49809;47.418;19.080;2023-05-07T13:17:23;100491.63;;;25.70;39.35
63654;BME280;49809;47.418;19.080;2023-05-07T13:20:28;100488.69;;;25.75;39.56
63654;BME280;49809;47.418;19.080;2023-05-07T13:23:30;100494.78;;;25.72;37.73
63654;BME280;49809;47.418;19.080;2023-05-07T13:26:34;100485.00;;;26.14;38.44
63654;BME280;49809;47.418;19.080;2023-05-07T13:29:40;100480.78;;;25.14;38.58
63654;BME280;49809;47.418;19.080;2023-05-07T13:32:46;100475.75;;;25.84;37.59
63654;BME280;49809;47.418;19.080;2023-05-07T13:35:57;100472.50;;;25.50;39.15
63654;BME280;49809;47.418;19.080;2023-05-07T13:39:00;100466.28;;;26.09;38.81
63654;BME280;49809;47.418;19.080;2023-05-07T13:42:03;100473.00;;;25.40;39.41
63654;BME280;49809;47.418;19.080;2023-05-07T13:45:08;100470.72;;;25.55;39.24
63654;BME280;49809;47.418;19.080;2023-05-07T13:48:16;100463.47;;;25.31;39.11
63654;BME280;49809;47.418;19.080;2023-05-07T13:51:20;100461.66;;;24.95;41.50
63654;BME280;49809;47.418;19.080;2023-05-07T13:54:23;100458.72;;;25.00;40.83
63654;BME280;49809;47.418;19.080;2023-05-07T13:57:29;100455.47;;;24.94;40.41
63654;BME280;49809;47.418;19.080;2023-05-07T14:00:36;100456.34;;;24.98;42.03
63654;BME280;49809;47.418;19.080;2023-05-07T14:03:42;100456.78;;;24.48;39.75
63654;BME280;49809;47.418;19.080;2023-05-07T14:06:47;100459.28;;;24.29;41.35
63654;BME280;49809;47.418;19.080;2023-05-07T14:09:52;100444.94;;;24.53;42.54
63654;BME280;49809;47.418;19.080;2023-05-07T14:13:28;100451.81;;;24.26;41.96
63654;BME280;49809;47.418;19.080;2023-05-07T14:16:34;100458.34;;;24.61;41.38
63654;BME280;49809;47.418;19.080;2023-05-07T14:19:39;100452.06;;;24.85;40.22
63654;BME280;49809;47.418;19.080;2023-05-07T14:22:44;100456.97;;;24.55;41.48
63654;BME280;49809;47.418;19.080;2023-05-07T14:25:48;100462.88;;;24.21;43.12
63654;BME280;49809;47.418;19.080;2023-05-07T14:28:53;100461.50;;;24.51;41.50
63654;BME280;49809;47.418;19.080;2023-05-07T14:32:03;100455.34;;;24.39;42.06
63654;BME280;49809;47.418;19.080;2023-05-07T14:35:07;100453.34;;;24.76;41.92
63654;BME280;49809;47.418;19.080;2023-05-07T14:38:16;100458.66;;;24.72;41.73
63654;BME280;49809;47.418;19.080;2023-05-07T14:41:19;100463.31;;;24.47;41.40
63654;BME280;49809;47.418;19.080;2023-05-07T14:44:25;100462.06;;;24.08;40.55
63654;BME280;49809;47.418;19.080;2023-05-07T14:47:28;100468.16;;;24.05;41.43
63654;BME280;49809;47.418;19.080;2023-05-07T14:50:35;100464.19;;;24.03;39.75
63654;BME280;49809;47.418;19.080;2023-05-07T14:53:46;100465.16;;;23.74;41.31
63654;BME280;49809;47.418;19.080;2023-05-07T14:56:54;100466.44;;;24.13;41.54
63654;BME280;49809;47.418;19.080;2023-05-07T15:00:00;100470.97;;;24.45;41.08
63654;BME280;49809;47.418;19.080;2023-05-07T15:03:08;100473.41;;;24.02;41.56
63654;BME280;49809;47.418;19.080;2023-05-07T15:06:11;100473.66;;;24.09;41.73
63654;BME280;49809;47.418;19.080;2023-05-07T15:09:17;100482.44;;;23.81;42.13
63654;BME280;49809;47.418;19.080;2023-05-07T15:12:20;100463.53;;;24.06;42.60
63654;BME280;49809;47.418;19.080;2023-05-07T15:15:23;100476.53;;;24.24;42.06
63654;BME280;49809;47.418;19.080;2023-05-07T15:18:29;100471.06;;;24.61;42.40
63654;BME280;49809;47.418;19.080;2023-05-07T15:21:38;100487.50;;;24.07;43.76
63654;BME280;49809;47.418;19.080;2023-05-07T15:24:42;100474.81;;;24.56;42.48
63654;BME280;49809;47.418;19.080;2023-05-07T15:27:44;100477.59;;;24.11;42.26
63654;BME280;49809;47.418;19.080;2023-05-07T15:30:47;100477.75;;;24.39;42.28
63654;BME280;49809;47.418;19.080;2023-05-07T15:33:50;100472.88;;;24.45;41.48
63654;BME280;49809;47.418;19.080;2023-05-07T15:37:17;100476.41;;;24.21;42.93
63654;BME280;49809;47.418;19.080;2023-05-07T15:40:19;100472.53;;;23.98;43.24
63654;BME280;49809;47.418;19.080;2023-05-07T15:43:22;100471.19;;;24.16;43.72
63654;BME280;49809;47.418;19.080;2023-05-07T15:46:26;100470.97;;;24.45;43.58
63654;BME280;49809;47.418;19.080;2023-05-07T15:49:29;100478.66;;;24.43;43.39
63654;BME280;49809;47.418;19.080;2023-05-07T15:52:34;100481.09;;;24.00;43.68
63654;BME280;49809;47.418;19.080;2023-05-07T15:55:37;100481.00;;;23.96;43.01
63654;BME280;49809;47.418;19.080;2023-05-07T15:58:44;100479.59;;;23.78;43.25
63654;BME280;49809;47.418;19.080;2023-05-07T16:01:52;100485.28;;;23.64;43.13
63654;BME280;49809;47.418;19.080;2023-05-07T16:04:56;100478.38;;;23.88;42.05
63654;BME280;49809;47.418;19.080;2023-05-07T16:07:59;100480.84;;;23.80;41.38
63654;BME280;49809;47.418;19.080;2023-05-07T16:11:18;100489.75;;;23.81;41.33
63654;BME280;49809;47.418;19.080;2023-05-07T16:14:23;100484.41;;;23.39;42.00
63654;BME280;49809;47.418;19.080;2023-05-07T16:17:28;100490.09;;;23.26;41.92
63654;BME280;49809;47.418;19.080;2023-05-07T16:20:31;100482.06;;;23.17;42.38
63654;BME280;49809;47.418;19.080;2023-05-07T16:23:36;100484.81;;;23.29;41.92
63654;BME280;49809;47.418;19.080;2023-05-07T16:26:41;100483.12;;;23.04;42.06
63654;BME280;49809;47.418;19.080;2023-05-07T16:29:45;100478.34;;;22.80;42.16
63654;BME280;49809;47.418;19.080;2023-05-07T16:32:50;100469.81;;;22.78;41.96
63654;BME280;49809;47.418;19.080;2023-05-07T16:35:53;100468.88;;;22.45;42.46
63654;BME280;49809;47.418;19.080;2023-05-07T16:38:55;100471.37;;;22.21;42.14
63654;BME280;49809;47.418;19.080;2023-05-07T16:42:02;100473.50;;;22.06;42.98
63654;BME280;49809;47.418;19.080;2023-05-07T16:45:07;100475.91;;;21.99;43.76
63654;BME280;49809;47.418;19.080;2023-05-07T16:48:35;100476.22;;;21.89;43.58
